createdAt,value
2018-03-30T00:02:01.109Z,3.13
2018-03-30T00:04:29.353Z,3.13
2018-03-30T00:06:57.604Z,2.90
2018-03-30T00:09:44.473Z,2.69
2018-03-30T00:12:12.722Z,2.66
2018-03-30T00:14:40.966Z,2.60
2018-03-30T00:17:09.214Z,2.38
2018-03-30T00:19:37.455Z,2.30
2018-03-30T00:22:05.701Z,2.24
2018-03-30T00:24:34.714Z,2.29
2018-03-30T00:27:02.961Z,2.27
2018-03-30T00:29:31.978Z,2.16
2018-03-30T00:32:00.225Z,2.07
2018-03-30T00:34:28.469Z,1.93
2018-03-30T00:36:56.728Z,1.87
2018-03-30T00:39:24.986Z,2.00
2018-03-30T00:41:53.230Z,2.07
2018-03-30T00:44:21.482Z,2.11
2018-03-30T00:46:49.730Z,2.04
2018-03-30T00:49:17.981Z,2.01
2018-03-30T00:51:46.233Z,2.12
2018-03-30T00:54:15.254Z,2.07
2018-03-30T00:56:43.501Z,2.00
2018-03-30T00:59:11.754Z,1.98
2018-03-30T01:01:40.002Z,1.53
2018-03-30T01:04:08.253Z,1.04
2018-03-30T01:06:36.493Z,0.98
2018-03-30T01:09:04.746Z,1.28
2018-03-30T01:11:32.989Z,1.50
2018-03-30T01:14:01.267Z,1.55
2018-03-30T01:16:29.508Z,1.59
2018-03-30T01:18:58.516Z,1.47
2018-03-30T01:21:27.529Z,1.30
2018-03-30T01:23:55.774Z,1.30
2018-03-30T01:26:24.797Z,1.37
2018-03-30T01:28:53.045Z,1.43
2018-03-30T01:31:22.070Z,1.56
2018-03-30T01:33:50.317Z,1.61
2018-03-30T01:36:19.343Z,1.50
2018-03-30T01:38:47.598Z,1.66
2018-03-30T01:41:15.850Z,1.59
2018-03-30T01:43:44.865Z,1.44
2018-03-30T01:46:13.121Z,1.28
2018-03-30T01:48:42.134Z,1.34
2018-03-30T01:51:10.419Z,1.14
2018-03-30T01:53:38.662Z,1.03
2018-03-30T01:56:07.690Z,1.00
2018-03-30T01:58:35.942Z,1.09
2018-03-30T02:01:04.942Z,1.14
2018-03-30T02:03:33.196Z,1.00
2018-03-30T02:06:02.213Z,0.99
2018-03-30T02:08:30.467Z,1.04
2018-03-30T02:10:59.478Z,1.22
2018-03-30T02:13:28.499Z,1.02
2018-03-30T02:15:56.795Z,1.08
2018-03-30T02:18:25.005Z,0.93
2018-03-30T02:20:54.017Z,0.83
2018-03-30T02:23:22.269Z,0.67
2018-03-30T02:25:51.288Z,0.78
2018-03-30T02:28:19.560Z,0.81
2018-03-30T02:30:48.711Z,0.93
2018-03-30T02:33:16.952Z,0.94
2018-03-30T02:35:45.209Z,1.02
2018-03-30T02:38:13.466Z,1.05
2018-03-30T02:40:41.722Z,1.03
2018-03-30T02:43:09.972Z,1.15
2018-03-30T02:45:38.223Z,0.83
2018-03-30T02:48:06.472Z,0.69
2018-03-30T02:50:35.493Z,0.68
2018-03-30T02:53:03.738Z,0.55
2018-03-30T02:55:32.762Z,0.51
2018-03-30T02:58:01.007Z,0.45
2018-03-30T03:00:30.025Z,0.47
2018-03-30T03:02:58.277Z,0.65
2018-03-30T03:05:27.301Z,0.70
2018-03-30T03:07:55.541Z,0.68
2018-03-30T03:10:24.565Z,0.75
2018-03-30T03:12:52.820Z,0.88
2018-03-30T03:15:21.829Z,1.11
2018-03-30T03:17:50.084Z,1.22
2018-03-30T03:20:19.093Z,1.00
2018-03-30T03:22:47.363Z,1.06
2018-03-30T03:25:16.374Z,1.02
2018-03-30T03:27:44.625Z,0.98
2018-03-30T03:30:13.652Z,1.11
2018-03-30T03:32:41.897Z,1.21
2018-03-30T03:35:10.913Z,1.11
2018-03-30T03:37:39.173Z,1.13
2018-03-30T03:40:07.426Z,1.13
2018-03-30T03:42:36.440Z,1.14
2018-03-30T03:45:04.691Z,1.14
2018-03-30T03:47:32.944Z,1.11
2018-03-30T03:50:01.295Z,0.97
2018-03-30T03:52:29.543Z,0.99
2018-03-30T03:54:58.549Z,0.96
2018-03-30T03:57:26.810Z,1.00
2018-03-30T03:59:55.821Z,1.01
2018-03-30T04:02:24.083Z,0.94
2018-03-30T04:04:52.338Z,0.87
2018-03-30T04:07:21.353Z,0.87
2018-03-30T04:09:49.613Z,0.92
2018-03-30T04:12:18.643Z,0.90
2018-03-30T04:14:46.885Z,0.79
2018-03-30T04:17:15.904Z,0.74
2018-03-30T04:19:44.162Z,0.73
2018-03-30T04:22:12.409Z,0.64
2018-03-30T04:24:40.669Z,0.54
2018-03-30T04:27:08.914Z,0.41
2018-03-30T04:29:37.175Z,0.23
2018-03-30T04:32:05.423Z,0.20
2018-03-30T04:34:34.435Z,0.23
2018-03-30T04:37:02.718Z,0.09
2018-03-30T04:39:30.978Z,0.14
2018-03-30T04:41:59.993Z,0.22
2018-03-30T04:44:28.234Z,0.27
2018-03-30T04:46:57.254Z,0.32
2018-03-30T04:49:25.497Z,0.28
2018-03-30T04:51:54.518Z,0.32
2018-03-30T04:54:22.769Z,0.37
2018-03-30T04:56:51.795Z,0.45
2018-03-30T04:59:20.033Z,0.39
2018-03-30T05:01:49.054Z,0.46
2018-03-30T05:04:17.302Z,0.60
2018-03-30T05:06:45.558Z,0.81
2018-03-30T05:09:13.809Z,0.95
2018-03-30T05:11:42.061Z,0.88
2018-03-30T05:14:10.312Z,0.78
2018-03-30T05:16:39.333Z,0.82
2018-03-30T05:19:07.585Z,0.98
2018-03-30T05:21:36.613Z,1.00
2018-03-30T05:24:04.869Z,0.89
2018-03-30T05:26:33.113Z,1.06
2018-03-30T05:29:01.366Z,0.89
2018-03-30T05:31:29.616Z,0.61
2018-03-30T05:33:57.875Z,0.27
2018-03-30T05:36:26.120Z,0.14
2018-03-30T05:38:55.145Z,0.19
2018-03-30T05:41:23.393Z,0.26
2018-03-30T05:43:52.413Z,0.28
2018-03-30T05:46:20.683Z,0.25
2018-03-30T05:48:49.690Z,0.05
2018-03-30T05:51:17.939Z,0.22
2018-03-30T05:53:46.957Z,0.21
2018-03-30T05:56:15.197Z,0.39
2018-03-30T05:58:44.218Z,0.30
2018-03-30T06:01:12.465Z,0.41
2018-03-30T06:03:40.718Z,0.63
2018-03-30T06:06:08.977Z,0.73
2018-03-30T06:08:37.227Z,0.73
2018-03-30T06:11:05.473Z,0.65
2018-03-30T06:13:34.485Z,0.73
2018-03-30T06:16:02.747Z,0.82
2018-03-30T06:18:31.757Z,0.90
2018-03-30T06:21:00.022Z,1.02
2018-03-30T06:23:29.033Z,1.16
2018-03-30T06:25:57.293Z,1.10
2018-03-30T06:28:25.536Z,1.06
2018-03-30T06:30:53.800Z,1.15
2018-03-30T06:33:22.045Z,1.37
2018-03-30T06:35:50.299Z,1.39
2018-03-30T06:38:18.579Z,1.58
2018-03-30T06:40:46.802Z,1.65
2018-03-30T06:43:15.049Z,1.70
2018-03-30T06:45:43.306Z,1.97
2018-03-30T06:48:11.552Z,2.08
2018-03-30T06:50:40.594Z,2.05
2018-03-30T06:53:08.840Z,2.09
2018-03-30T06:55:37.094Z,2.08
2018-03-30T06:58:06.220Z,2.24
2018-03-30T07:00:34.472Z,2.24
2018-03-30T07:03:03.498Z,2.51
2018-03-30T07:05:31.744Z,2.66
2018-03-30T07:08:00.766Z,2.98
2018-03-30T07:10:29.009Z,3.12
2018-03-30T07:12:58.033Z,3.25
2018-03-30T07:15:26.285Z,3.33
2018-03-30T07:17:55.307Z,3.48
2018-03-30T07:20:23.555Z,3.66
2018-03-30T07:22:52.566Z,3.35
2018-03-30T07:25:20.815Z,3.51
2018-03-30T07:27:49.828Z,3.52
2018-03-30T07:30:18.073Z,3.68
2018-03-30T07:32:46.324Z,4.01
2018-03-30T07:35:14.576Z,4.28
2018-03-30T07:37:42.825Z,4.13
2018-03-30T07:40:11.073Z,3.99
2018-03-30T07:42:39.325Z,4.14
2018-03-30T07:45:07.576Z,4.36
2018-03-30T07:47:35.845Z,4.67
2018-03-30T07:50:04.096Z,4.83
2018-03-30T07:52:33.089Z,4.70
2018-03-30T07:55:02.105Z,4.79
2018-03-30T07:57:30.350Z,4.88
2018-03-30T07:59:59.370Z,4.88
2018-03-30T08:02:27.617Z,5.14
2018-03-30T08:04:56.632Z,5.15
2018-03-30T08:07:24.879Z,5.50
2018-03-30T08:09:53.134Z,5.56
2018-03-30T08:12:21.384Z,5.65
2018-03-30T08:14:49.643Z,5.31
2018-03-30T08:17:17.888Z,5.98
2018-03-30T08:19:46.905Z,6.12
2018-03-30T08:22:15.153Z,6.20
2018-03-30T08:24:44.165Z,6.29
2018-03-30T08:27:12.414Z,6.50
2018-03-30T08:29:40.671Z,6.70
2018-03-30T08:32:08.948Z,6.92
2018-03-30T08:34:37.874Z,6.42
2018-03-30T08:37:06.884Z,7.02
2018-03-30T08:39:35.160Z,7.26
2018-03-30T08:42:03.401Z,6.94
2018-03-30T08:44:31.653Z,6.92
2018-03-30T08:46:59.943Z,6.96
2018-03-30T08:49:28.157Z,7.13
2018-03-30T08:51:56.409Z,7.34
2018-03-30T08:54:25.430Z,7.37
2018-03-30T08:56:53.677Z,7.83
2018-03-30T08:59:22.686Z,7.69
2018-03-30T09:01:50.945Z,7.78
2018-03-30T09:04:19.956Z,7.96
2018-03-30T09:06:48.975Z,8.04
2018-03-30T09:09:17.218Z,8.13
2018-03-30T09:11:46.242Z,7.69
2018-03-30T09:14:14.489Z,7.92
2018-03-30T09:16:43.510Z,8.56
2018-03-30T09:19:11.758Z,8.34
2018-03-30T09:21:40.775Z,8.41
2018-03-30T09:24:09.024Z,8.27
2018-03-30T09:26:38.042Z,9.12
2018-03-30T09:29:06.286Z,9.12
2018-03-30T09:31:35.335Z,9.75
2018-03-30T09:34:03.579Z,9.21
2018-03-30T09:36:31.821Z,9.43
2018-03-30T09:39:00.977Z,9.89
2018-03-30T09:41:29.244Z,9.63
2018-03-30T09:43:57.496Z,9.89
2018-03-30T09:46:25.756Z,9.94
2018-03-30T09:48:54.766Z,10.14
2018-03-30T09:51:23.012Z,10.27
2018-03-30T09:53:51.262Z,10.12
2018-03-30T09:56:19.510Z,9.97
2018-03-30T09:58:47.758Z,10.19
2018-03-30T10:01:16.768Z,10.41
2018-03-30T10:03:48.465Z,10.27
2018-03-30T10:06:16.718Z,10.63
2018-03-30T10:08:44.985Z,10.44
2018-03-30T10:11:13.234Z,10.56
2018-03-30T10:13:42.262Z,10.93
2018-03-30T10:16:10.513Z,10.76
2018-03-30T10:18:38.770Z,10.88
2018-03-30T10:21:07.798Z,11.09
2018-03-30T10:23:36.046Z,11.38
2018-03-30T10:26:05.060Z,10.82
2018-03-30T10:28:33.319Z,11.71
2018-03-30T10:31:01.596Z,11.37
2018-03-30T10:33:30.617Z,11.19
2018-03-30T10:35:58.906Z,11.66
2018-03-30T10:38:27.879Z,11.98
2018-03-30T10:40:56.125Z,12.02
2018-03-30T10:43:25.145Z,12.21
2018-03-30T10:45:53.397Z,12.00
2018-03-30T10:48:22.426Z,11.77
2018-03-30T10:50:50.673Z,11.40
2018-03-30T10:53:18.930Z,12.41
2018-03-30T10:55:47.945Z,13.02
2018-03-30T10:58:16.203Z,12.45
2018-03-30T11:00:45.243Z,12.11
2018-03-30T11:03:13.606Z,13.27
2018-03-30T11:05:41.865Z,12.36
2018-03-30T11:08:10.142Z,13.51
2018-03-30T11:10:38.396Z,14.02
2018-03-30T11:13:07.445Z,14.86
2018-03-30T11:15:35.705Z,13.31
2018-03-30T11:18:04.012Z,13.58
2018-03-30T11:20:32.245Z,14.33
2018-03-30T11:23:00.492Z,13.90
2018-03-30T11:25:28.750Z,14.59
2018-03-30T11:27:57.792Z,13.69
2018-03-30T11:30:26.050Z,13.22
2018-03-30T11:32:55.082Z,13.48
2018-03-30T11:35:23.322Z,13.88
2018-03-30T11:37:51.575Z,13.69
2018-03-30T11:40:20.602Z,15.13
2018-03-30T11:42:48.854Z,15.40
2018-03-30T11:45:17.867Z,15.85
2018-03-30T11:47:46.147Z,15.75
2018-03-30T11:50:14.393Z,15.73
2018-03-30T11:52:43.408Z,15.08
2018-03-30T11:55:11.659Z,14.12
2018-03-30T11:57:40.684Z,13.88
2018-03-30T12:00:08.930Z,14.22
2018-03-30T12:02:37.182Z,14.74
2018-03-30T12:05:05.421Z,14.29
2018-03-30T12:07:33.674Z,15.29
2018-03-30T12:10:01.924Z,16.08
2018-03-30T12:12:30.167Z,16.37
2018-03-30T12:14:58.420Z,15.65
2018-03-30T12:17:26.673Z,15.31
2018-03-30T12:19:54.921Z,14.08
2018-03-30T12:22:23.161Z,13.42
2018-03-30T12:24:51.414Z,14.15
2018-03-30T12:27:19.654Z,14.38
2018-03-30T12:29:48.671Z,13.63
2018-03-30T12:32:16.910Z,14.35
2018-03-30T12:34:45.162Z,15.23
2018-03-30T12:37:13.422Z,14.75
2018-03-30T12:39:41.670Z,15.38
2018-03-30T12:42:09.911Z,14.76
2018-03-30T12:44:38.165Z,14.64
2018-03-30T12:47:06.410Z,14.95
2018-03-30T12:49:34.653Z,14.92
2018-03-30T12:52:03.666Z,14.99
2018-03-30T12:54:31.922Z,15.24
2018-03-30T12:57:00.935Z,14.93
2018-03-30T12:59:29.182Z,14.69
2018-03-30T13:01:57.426Z,14.47
2018-03-30T13:04:25.678Z,13.92
2018-03-30T13:06:53.922Z,14.25
2018-03-30T13:09:22.977Z,14.55
2018-03-30T13:11:51.225Z,14.34
2018-03-30T13:14:19.519Z,14.35
2018-03-30T13:16:48.534Z,14.72
2018-03-30T13:19:18.289Z,14.59
2018-03-30T13:21:46.537Z,14.44
2018-03-30T13:24:15.550Z,14.13
2018-03-30T13:26:43.801Z,14.59
2018-03-30T13:29:12.046Z,14.25
2018-03-30T13:31:40.301Z,14.42
2018-03-30T13:34:08.544Z,14.18
2018-03-30T13:36:37.562Z,14.73
2018-03-30T13:39:05.809Z,14.99
2018-03-30T13:41:34.821Z,14.67
2018-03-30T13:44:03.065Z,14.70
2018-03-30T13:46:32.189Z,14.64
2018-03-30T13:49:00.429Z,14.29
2018-03-30T13:54:30.242Z,14.35
2018-03-30T13:57:03.522Z,14.47
2018-03-30T13:59:31.764Z,14.40
2018-03-30T14:05:17.031Z,14.17
2018-03-30T14:07:52.246Z,14.01
2018-03-30T14:10:35.381Z,13.97
2018-03-30T14:13:07.182Z,14.11
2018-03-30T14:15:39.224Z,14.27
2018-03-30T14:18:15.769Z,14.05
2018-03-30T14:20:44.018Z,14.02
2018-03-30T14:23:16.782Z,14.01
2018-03-30T14:25:55.338Z,14.01
2018-03-30T14:28:27.001Z,14.08
2018-03-30T14:34:07.721Z,14.40
2018-03-30T14:39:47.927Z,14.39
2018-03-30T14:42:16.892Z,14.54
2018-03-30T14:45:11.059Z,14.53
2018-03-30T14:47:52.706Z,14.52
2018-03-30T14:53:41.401Z,14.28
2018-03-30T14:56:11.469Z,14.48
2018-03-30T14:59:08.017Z,14.30
2018-03-30T15:04:59.974Z,14.53
2018-03-30T15:07:32.335Z,14.70
2018-03-30T15:10:08.810Z,14.96
2018-03-30T15:15:52.699Z,14.86
2018-03-30T15:18:25.089Z,14.70
2018-03-30T15:21:02.881Z,14.49
2018-03-30T15:23:33.426Z,14.64
2018-03-30T15:26:08.804Z,14.63
2018-03-30T15:28:38.418Z,14.51
2018-03-30T15:31:16.573Z,14.15
2018-03-30T15:34:04.074Z,14.37
2018-03-30T15:36:51.668Z,14.45
2018-03-30T15:39:19.933Z,14.40
2018-03-30T15:41:49.594Z,14.20
2018-03-30T15:44:17.835Z,13.94
2018-03-30T15:46:58.342Z,14.04
2018-03-30T15:49:28.230Z,14.07
2018-03-30T15:51:57.753Z,14.08
2018-03-30T15:54:25.201Z,14.06
2018-03-30T15:56:57.399Z,13.97
2018-03-30T15:59:25.644Z,13.97
2018-03-30T16:01:53.890Z,13.87
2018-03-30T16:04:22.130Z,13.78
2018-03-30T16:06:50.382Z,13.72
2018-03-30T16:09:19.429Z,13.75
2018-03-30T16:11:56.299Z,13.66
2018-03-30T16:14:24.537Z,13.67
2018-03-30T16:16:52.786Z,13.59
2018-03-30T16:19:20.246Z,13.52
2018-03-30T16:21:47.702Z,13.53
2018-03-30T16:24:15.148Z,13.49
2018-03-30T16:26:42.614Z,13.40
2018-03-30T16:29:10.082Z,13.35
2018-03-30T16:31:37.541Z,13.29
2018-03-30T16:34:04.994Z,13.31
2018-03-30T16:36:32.454Z,13.27
2018-03-30T16:38:59.904Z,13.21
2018-03-30T16:41:27.397Z,13.23
2018-03-30T16:43:55.626Z,13.29
2018-03-30T16:46:23.073Z,13.17
2018-03-30T16:48:50.620Z,13.12
2018-03-30T16:51:18.071Z,13.13
2018-03-30T16:53:45.529Z,13.12
2018-03-30T16:56:13.002Z,13.04
2018-03-30T16:58:40.485Z,13.02
2018-03-30T17:01:07.950Z,13.00
2018-03-30T17:03:35.423Z,13.05
2018-03-30T17:06:02.869Z,13.06
2018-03-30T17:08:30.332Z,12.96
2018-03-30T17:10:57.784Z,12.87
2018-03-30T17:13:25.246Z,12.90
2018-03-30T17:15:53.478Z,12.81
2018-03-30T17:18:20.933Z,12.75
2018-03-30T17:20:48.396Z,12.68
2018-03-30T17:23:15.863Z,12.61
2018-03-30T17:25:43.330Z,12.56
2018-03-30T17:28:10.790Z,12.50
2018-03-30T17:30:38.247Z,12.42
2018-03-30T17:33:05.713Z,12.29
2018-03-30T17:35:33.170Z,12.24
2018-03-30T17:38:00.637Z,12.17
2018-03-30T17:40:28.849Z,12.12
2018-03-30T17:42:56.315Z,12.07
2018-03-30T17:45:23.783Z,12.03
2018-03-30T17:47:51.234Z,11.97
2018-03-30T17:50:18.687Z,11.84
2018-03-30T17:52:46.138Z,11.82
2018-03-30T17:55:13.604Z,11.74
2018-03-30T17:57:41.062Z,11.67
2018-03-30T18:00:08.524Z,11.57
2018-03-30T18:02:35.981Z,11.48
2018-03-30T18:05:03.443Z,11.40
2018-03-30T18:07:30.897Z,11.31
2018-03-30T18:09:58.362Z,11.25
2018-03-30T18:12:25.813Z,11.19
2018-03-30T18:14:53.275Z,11.15
2018-03-30T18:17:20.734Z,11.15
2018-03-30T18:19:48.193Z,11.17
2018-03-30T18:22:15.654Z,11.15
2018-03-30T18:24:43.121Z,11.16
2018-03-30T18:27:10.578Z,11.20
2018-03-30T18:29:38.082Z,11.24
2018-03-30T18:32:05.543Z,11.28
2018-03-30T18:34:33.017Z,11.22
2018-03-30T18:37:00.469Z,11.17
2018-03-30T18:39:27.937Z,11.13
2018-03-30T18:41:55.389Z,11.13
2018-03-30T18:44:22.851Z,11.15
2018-03-30T18:46:50.301Z,11.14
2018-03-30T18:49:17.753Z,11.26
2018-03-30T18:51:45.217Z,11.30
2018-03-30T18:54:12.672Z,11.28
2018-03-30T18:56:40.138Z,11.30
2018-03-30T18:59:07.671Z,11.31
2018-03-30T19:01:35.133Z,11.26
2018-03-30T19:04:02.596Z,11.38
2018-03-30T19:06:36.383Z,11.41
2018-03-30T19:09:03.777Z,11.33
2018-03-30T19:11:31.247Z,11.32
2018-03-30T19:13:58.708Z,11.30
2018-03-30T19:16:26.184Z,11.24
2018-03-30T19:18:53.653Z,11.11
2018-03-30T19:21:21.882Z,11.00
2018-03-30T19:23:49.346Z,10.76
2018-03-30T19:26:16.839Z,10.52
2018-03-30T19:28:44.270Z,10.66
2018-03-30T19:31:11.733Z,10.61
2018-03-30T19:33:39.181Z,10.48
2018-03-30T19:36:06.641Z,10.11
2018-03-30T19:38:34.100Z,10.04
2018-03-30T19:41:01.559Z,9.97
2018-03-30T19:43:29.007Z,9.82
2018-03-30T19:45:56.461Z,9.66
2018-03-30T19:48:23.921Z,9.65
2018-03-30T19:50:51.445Z,9.44
2018-03-30T19:53:18.900Z,9.39
2018-03-30T19:55:46.352Z,9.40
2018-03-30T19:58:13.848Z,9.37
2018-03-30T20:00:41.329Z,9.37
2018-03-30T20:03:09.690Z,9.33
2018-03-30T20:05:37.141Z,9.33
2018-03-30T20:08:04.606Z,9.27
2018-03-30T20:10:32.057Z,9.25
2018-03-30T20:12:59.518Z,9.15
2018-03-30T20:15:26.972Z,8.98
2018-03-30T20:17:54.436Z,8.95
2018-03-30T20:20:21.881Z,8.78
2018-03-30T20:22:49.402Z,8.63
2018-03-30T20:25:16.851Z,8.57
2018-03-30T20:27:44.326Z,8.58
2018-03-30T20:30:11.801Z,8.72
2018-03-30T20:32:39.357Z,8.91
2018-03-30T20:35:06.826Z,8.93
2018-03-30T20:37:34.293Z,8.79
2018-03-30T20:40:02.536Z,8.74
2018-03-30T20:42:30.013Z,8.51
2018-03-30T20:44:57.478Z,8.47
2018-03-30T20:47:24.925Z,8.45
2018-03-30T20:49:52.389Z,8.58
2018-03-30T20:52:19.837Z,8.54
2018-03-30T20:54:47.310Z,8.55
2018-03-30T20:57:14.745Z,8.53
2018-03-30T20:59:42.199Z,8.54
2018-03-30T21:02:09.648Z,8.55
2018-03-30T21:04:37.105Z,8.52
2018-03-30T21:07:04.753Z,8.35
2018-03-30T21:09:32.205Z,8.34
2018-03-30T21:11:59.670Z,8.22
2018-03-30T21:14:27.125Z,8.14
2018-03-30T21:16:54.582Z,8.23
2018-03-30T21:19:22.029Z,8.00
2018-03-30T21:21:49.489Z,8.02
2018-03-30T21:24:16.942Z,8.04
2018-03-30T21:26:44.478Z,8.10
2018-03-30T21:29:12.694Z,7.98
2018-03-30T21:31:40.171Z,7.88
2018-03-30T21:34:07.639Z,7.90
2018-03-30T21:36:35.141Z,7.83
2018-03-30T21:39:02.654Z,7.86
2018-03-30T21:41:30.150Z,7.83
2018-03-30T21:43:58.361Z,7.75
2018-03-30T21:46:25.813Z,7.74
2018-03-30T21:48:53.261Z,7.72
2018-03-30T21:51:20.734Z,7.65
2018-03-30T21:53:48.185Z,7.67
2018-03-30T21:56:15.704Z,7.70
2018-03-30T21:58:43.993Z,7.68
2018-03-30T22:01:11.446Z,7.71
2018-03-30T22:03:39.669Z,7.59
2018-03-30T22:06:07.134Z,7.64
2018-03-30T22:08:34.589Z,7.73
2018-03-30T22:11:02.043Z,7.72
2018-03-30T22:13:29.506Z,7.72
2018-03-30T22:15:56.961Z,7.63
2018-03-30T22:18:24.417Z,7.79
2018-03-30T22:20:52.637Z,7.82
2018-03-30T22:23:20.107Z,7.82
2018-03-30T22:25:47.585Z,7.79
2018-03-30T22:28:15.106Z,7.89
2018-03-30T22:30:42.575Z,7.91
2018-03-30T22:33:10.090Z,7.90
2018-03-30T22:35:37.589Z,7.83
2018-03-30T22:38:05.043Z,7.80
2018-03-30T22:40:32.490Z,7.76
2018-03-30T22:43:00.714Z,7.71
2018-03-30T22:45:28.165Z,7.66
2018-03-30T22:47:55.614Z,7.71
2018-03-30T22:50:23.077Z,7.71
2018-03-30T22:52:50.524Z,7.67
2018-03-30T22:55:17.996Z,7.63
2018-03-30T22:57:45.458Z,7.59
2018-03-30T23:00:12.914Z,7.55
2018-03-30T23:02:40.378Z,7.51
2018-03-30T23:05:07.839Z,7.54
2018-03-30T23:07:35.305Z,7.54
2018-03-30T23:10:02.765Z,7.51
2018-03-30T23:12:30.213Z,7.44
2018-03-30T23:14:57.681Z,7.47
2018-03-30T23:17:25.147Z,7.46
2018-03-30T23:19:53.381Z,7.42
2018-03-30T23:22:20.843Z,7.49
2018-03-30T23:24:48.290Z,7.47
2018-03-30T23:27:15.756Z,7.46
2018-03-30T23:29:43.200Z,7.43
2018-03-30T23:32:10.666Z,7.40
2018-03-30T23:34:38.113Z,7.44
2018-03-30T23:37:05.581Z,7.43
2018-03-30T23:39:33.044Z,7.38
2018-03-30T23:42:00.498Z,7.40
2018-03-30T23:44:27.942Z,7.33
2018-03-30T23:46:55.400Z,7.34
2018-03-30T23:49:22.853Z,7.32
2018-03-30T23:51:50.325Z,7.24
2018-03-30T23:54:17.769Z,7.28
2018-03-30T23:56:45.238Z,7.25
2018-03-30T23:59:12.684Z,7.24
